sensor_id;sensor_type;location;lat;lon;timestamp;P1;durP1;ratioP1;P2;durP2;ratioP2
75576;SDS011;64157;50.138;14.544;2022-12-07T00:01:29;1.08;;;1.08;;
75576;SDS011;64157;50.138;14.544;2022-12-07T00:04:00;1.67;;;1.50;;
75576;SDS011;64157;50.138;14.544;2022-12-07T00:06:30;1.92;;;1.23;;
75576;SDS011;64157;50.138;14.544;2022-12-07T00:08:57;1.17;;;1.17;;
75576;SDS011;64157;50.138;14.544;2022-12-07T00:11:23;1.48;;;1.40;;
75576;SDS011;64157;50.138;14.544;2022-12-07T00:13:56;1.02;;;0.98;;
75576;SDS011;64157;50.138;14.544;2022-12-07T00:16:25;1.77;;;1.25;;
75576;SDS011;64157;50.138;14.544;2022-12-07T00:18:52;1.48;;;1.38;;
75576;SDS011;64157;50.138;14.544;2022-12-07T00:21:19;1.27;;;1.20;;
75576;SDS011;64157;50.138;14.544;2022-12-07T00:23:47;1.45;;;1.23;;
75576;SDS011;64157;50.138;14.544;2022-12-07T00:26:14;2.42;;;1.48;;
75576;SDS011;64157;50.138;14.544;2022-12-07T00:28:49;1.80;;;1.70;;
75576;SDS011;64157;50.138;14.544;2022-12-07T00:31:19;1.70;;;1.60;;
75576;SDS011;64157;50.138;14.544;2022-12-07T00:33:46;1.60;;;1.50;;
75576;SDS011;64157;50.138;14.544;2022-12-07T00:36:13;2.17;;;1.42;;
75576;SDS011;64157;50.138;14.544;2022-12-07T00:38:40;1.60;;;1.30;;
75576;SDS011;64157;50.138;14.544;2022-12-07T00:41:07;3.17;;;1.88;;
75576;SDS011;64157;50.138;14.544;2022-12-07T00:43:39;1.40;;;1.33;;
75576;SDS011;64157;50.138;14.544;2022-12-07T00:46:06;2.47;;;1.55;;
75576;SDS011;64157;50.138;14.544;2022-12-07T00:48:31;1.10;;;1.10;;
75576;SDS011;64157;50.138;14.544;2022-12-07T00:50:57;1.08;;;1.02;;
75576;SDS011;64157;50.138;14.544;2022-12-07T00:53:22;1.48;;;1.27;;
75576;SDS011;64157;50.138;14.544;2022-12-07T00:55:48;1.13;;;1.13;;
75576;SDS011;64157;50.138;14.544;2022-12-07T00:58:14;1.10;;;1.00;;
75576;SDS011;64157;50.138;14.544;2022-12-07T01:00:40;1.48;;;1.38;;
75576;SDS011;64157;50.138;14.544;2022-12-07T01:03:07;1.88;;;1.63;;
75576;SDS011;64157;50.138;14.544;2022-12-07T01:05:33;3.38;;;1.40;;
75576;SDS011;64157;50.138;14.544;2022-12-07T01:11:14;1.50;;;1.40;;
75576;SDS011;64157;50.138;14.544;2022-12-07T01:13:37;2.88;;;2.45;;
75576;SDS011;64157;50.138;14.544;2022-12-07T01:16:03;2.20;;;1.45;;
75576;SDS011;64157;50.138;14.544;2022-12-07T01:18:31;1.40;;;1.30;;
75576;SDS011;64157;50.138;14.544;2022-12-07T01:20:58;1.55;;;1.45;;
75576;SDS011;64157;50.138;14.544;2022-12-07T01:23:29;2.10;;;1.92;;
75576;SDS011;64157;50.138;14.544;2022-12-07T01:25:58;2.35;;;1.85;;
75576;SDS011;64157;50.138;14.544;2022-12-07T01:28:25;2.08;;;1.60;;
75576;SDS011;64157;50.138;14.544;2022-12-07T01:30:55;2.95;;;1.55;;
75576;SDS011;64157;50.138;14.544;2022-12-07T01:33:29;1.60;;;1.50;;
75576;SDS011;64157;50.138;14.544;2022-12-07T01:38:29;2.63;;;1.88;;
75576;SDS011;64157;50.138;14.544;2022-12-07T01:40:56;2.47;;;1.90;;
75576;SDS011;64157;50.138;14.544;2022-12-07T01:43:22;2.63;;;2.20;;
75576;SDS011;64157;50.138;14.544;2022-12-07T01:45:51;2.65;;;2.35;;
75576;SDS011;64157;50.138;14.544;2022-12-07T01:48:17;2.08;;;1.70;;
75576;SDS011;64157;50.138;14.544;2022-12-07T01:50:47;2.80;;;2.15;;
75576;SDS011;64157;50.138;14.544;2022-12-07T01:53:15;1.60;;;1.50;;
75576;SDS011;64157;50.138;14.544;2022-12-07T01:55:44;1.80;;;1.45;;
75576;SDS011;64157;50.138;14.544;2022-12-07T01:58:12;1.83;;;1.73;;
75576;SDS011;64157;50.138;14.544;2022-12-07T02:00:39;2.97;;;2.28;;
75576;SDS011;64157;50.138;14.544;2022-12-07T02:03:14;2.25;;;2.05;;
75576;SDS011;64157;50.138;14.544;2022-12-07T02:05:44;1.92;;;1.77;;
75576;SDS011;64157;50.138;14.544;2022-12-07T02:08:13;3.53;;;2.53;;
75576;SDS011;64157;50.138;14.544;2022-12-07T02:10:38;2.40;;;1.85;;
75576;SDS011;64157;50.138;14.544;2022-12-07T02:27:47;3.10;;;2.30;;
75576;SDS011;64157;50.138;14.544;2022-12-07T02:30:21;3.13;;;2.65;;
75576;SDS011;64157;50.138;14.544;2022-12-07T02:32:55;1.35;;;1.25;;
75576;SDS011;64157;50.138;14.544;2022-12-07T02:35:30;4.25;;;2.80;;
75576;SDS011;64157;50.138;14.544;2022-12-07T02:40:44;2.67;;;2.47;;
75576;SDS011;64157;50.138;14.544;2022-12-07T02:43:21;3.38;;;2.63;;
75576;SDS011;64157;50.138;14.544;2022-12-07T02:45:54;1.92;;;1.83;;
75576;SDS011;64157;50.138;14.544;2022-12-07T02:48:26;4.57;;;2.20;;
75576;SDS011;64157;50.138;14.544;2022-12-07T02:50:53;2.22;;;2.03;;
75576;SDS011;64157;50.138;14.544;2022-12-07T02:53:32;4.10;;;2.53;;
75576;SDS011;64157;50.138;14.544;2022-12-07T02:56:03;1.52;;;1.42;;
75576;SDS011;64157;50.138;14.544;2022-12-07T03:01:28;4.00;;;2.40;;
75576;SDS011;64157;50.138;14.544;2022-12-07T03:04:27;1.85;;;1.75;;
75576;SDS011;64157;50.138;14.544;2022-12-07T03:06:56;3.80;;;2.35;;
75576;SDS011;64157;50.138;14.544;2022-12-07T03:12:04;2.78;;;2.42;;
75576;SDS011;64157;50.138;14.544;2022-12-07T03:14:40;2.42;;;2.22;;
75576;SDS011;64157;50.138;14.544;2022-12-07T03:17:14;3.45;;;2.47;;
75576;SDS011;64157;50.138;14.544;2022-12-07T03:19:44;2.47;;;2.03;;
75576;SDS011;64157;50.138;14.544;2022-12-07T03:22:12;4.20;;;2.60;;
75576;SDS011;64157;50.138;14.544;2022-12-07T03:24:40;2.17;;;1.83;;
75576;SDS011;64157;50.138;14.544;2022-12-07T03:27:30;1.98;;;1.80;;
75576;SDS011;64157;50.138;14.544;2022-12-07T03:35:27;2.45;;;2.25;;
75576;SDS011;64157;50.138;14.544;2022-12-07T03:37:58;2.88;;;2.45;;
75576;SDS011;64157;50.138;14.544;2022-12-07T03:40:30;3.10;;;2.25;;
75576;SDS011;64157;50.138;14.544;2022-12-07T03:42:58;2.95;;;2.25;;
75576;SDS011;64157;50.138;14.544;2022-12-07T03:45:30;2.33;;;2.13;;
75576;SDS011;64157;50.138;14.544;2022-12-07T03:51:03;2.65;;;1.75;;
75576;SDS011;64157;50.138;14.544;2022-12-07T03:53:39;2.95;;;2.63;;
75576;SDS011;64157;50.138;14.544;2022-12-07T03:56:09;3.13;;;2.92;;
75576;SDS011;64157;50.138;14.544;2022-12-07T03:58:36;2.88;;;2.38;;
75576;SDS011;64157;50.138;14.544;2022-12-07T04:01:03;2.30;;;2.10;;
75576;SDS011;64157;50.138;14.544;2022-12-07T04:03:29;2.63;;;2.28;;
75576;SDS011;64157;50.138;14.544;2022-12-07T04:05:54;3.05;;;2.63;;
75576;SDS011;64157;50.138;14.544;2022-12-07T04:08:20;3.17;;;2.88;;
75576;SDS011;64157;50.138;14.544;2022-12-07T04:10:45;2.17;;;1.98;;
75576;SDS011;64157;50.138;14.544;2022-12-07T04:13:11;2.53;;;2.00;;
75576;SDS011;64157;50.138;14.544;2022-12-07T04:15:36;3.40;;;2.72;;
75576;SDS011;64157;50.138;14.544;2022-12-07T04:18:02;2.03;;;1.88;;
75576;SDS011;64157;50.138;14.544;2022-12-07T04:20:27;3.28;;;2.97;;
75576;SDS011;64157;50.138;14.544;2022-12-07T04:22:53;2.92;;;2.30;;
75576;SDS011;64157;50.138;14.544;2022-12-07T04:25:18;2.95;;;2.65;;
75576;SDS011;64157;50.138;14.544;2022-12-07T04:27:43;2.25;;;2.05;;
75576;SDS011;64157;50.138;14.544;2022-12-07T04:30:09;3.03;;;2.17;;
75576;SDS011;64157;50.138;14.544;2022-12-07T04:32:35;2.97;;;2.47;;
75576;SDS011;64157;50.138;14.544;2022-12-07T04:35:00;1.85;;;1.75;;
75576;SDS011;64157;50.138;14.544;2022-12-07T04:37:26;1.83;;;1.73;;
75576;SDS011;64157;50.138;14.544;2022-12-07T04:39:51;2.80;;;2.60;;
75576;SDS011;64157;50.138;14.544;2022-12-07T04:42:17;2.60;;;2.40;;
75576;SDS011;64157;50.138;14.544;2022-12-07T04:44:42;1.90;;;1.80;;
75576;SDS011;64157;50.138;14.544;2022-12-07T04:47:07;7.28;;;3.25;;
75576;SDS011;64157;50.138;14.544;2022-12-07T04:49:33;1.98;;;1.83;;
75576;SDS011;64157;50.138;14.544;2022-12-07T04:51:59;2.30;;;2.10;;
75576;SDS011;64157;50.138;14.544;2022-12-07T04:54:24;2.47;;;2.28;;
75576;SDS011;64157;50.138;14.544;2022-12-07T04:56:50;1.80;;;1.70;;
75576;SDS011;64157;50.138;14.544;2022-12-07T04:59:15;2.60;;;2.38;;
75576;SDS011;64157;50.138;14.544;2022-12-07T05:01:42;3.65;;;3.17;;
75576;SDS011;64157;50.138;14.544;2022-12-07T05:04:07;2.17;;;1.98;;
75576;SDS011;64157;50.138;14.544;2022-12-07T05:06:33;2.67;;;2.42;;
75576;SDS011;64157;50.138;14.544;2022-12-07T05:08:59;2.92;;;2.00;;
75576;SDS011;64157;50.138;14.544;2022-12-07T05:11:25;4.00;;;2.55;;
75576;SDS011;64157;50.138;14.544;2022-12-07T05:14:03;2.00;;;1.90;;
75576;SDS011;64157;50.138;14.544;2022-12-07T05:16:30;2.70;;;2.50;;
75576;SDS011;64157;50.138;14.544;2022-12-07T05:18:56;3.55;;;3.25;;
75576;SDS011;64157;50.138;14.544;2022-12-07T05:21:22;3.60;;;3.30;;
75576;SDS011;64157;50.138;14.544;2022-12-07T05:23:47;5.10;;;3.65;;
75576;SDS011;64157;50.138;14.544;2022-12-07T05:26:13;4.18;;;2.88;;
75576;SDS011;64157;50.138;14.544;2022-12-07T05:28:38;3.85;;;3.33;;
75576;SDS011;64157;50.138;14.544;2022-12-07T05:31:04;4.35;;;3.40;;
75576;SDS011;64157;50.138;14.544;2022-12-07T05:33:29;3.55;;;3.25;;
75576;SDS011;64157;50.138;14.544;2022-12-07T05:35:55;3.05;;;2.75;;
75576;SDS011;64157;50.138;14.544;2022-12-07T05:38:21;3.42;;;3.03;;
75576;SDS011;64157;50.138;14.544;2022-12-07T05:40:50;3.40;;;2.92;;
75576;SDS011;64157;50.138;14.544;2022-12-07T05:43:16;4.10;;;3.08;;
75576;SDS011;64157;50.138;14.544;2022-12-07T05:45:41;3.08;;;2.78;;
75576;SDS011;64157;50.138;14.544;2022-12-07T05:48:07;4.32;;;3.90;;
75576;SDS011;64157;50.138;14.544;2022-12-07T05:50:33;3.80;;;3.38;;
75576;SDS011;64157;50.138;14.544;2022-12-07T05:52:58;3.22;;;2.92;;
75576;SDS011;64157;50.138;14.544;2022-12-07T05:55:24;3.38;;;3.10;;
75576;SDS011;64157;50.138;14.544;2022-12-07T05:57:49;4.05;;;3.55;;
75576;SDS011;64157;50.138;14.544;2022-12-07T06:00:33;8.27;;;3.47;;
75576;SDS011;64157;50.138;14.544;2022-12-07T06:02:58;3.15;;;2.50;;
75576;SDS011;64157;50.138;14.544;2022-12-07T06:05:33;3.92;;;3.38;;
75576;SDS011;64157;50.138;14.544;2022-12-07T06:07:58;3.72;;;2.83;;
75576;SDS011;64157;50.138;14.544;2022-12-07T06:10:24;4.45;;;3.53;;
75576;SDS011;64157;50.138;14.544;2022-12-07T06:12:49;4.05;;;3.67;;
75576;SDS011;64157;50.138;14.544;2022-12-07T06:15:15;3.72;;;3.35;;
75576;SDS011;64157;50.138;14.544;2022-12-07T06:17:40;4.38;;;3.75;;
75576;SDS011;64157;50.138;14.544;2022-12-07T06:20:06;3.13;;;2.67;;
75576;SDS011;64157;50.138;14.544;2022-12-07T06:22:32;4.07;;;2.95;;
75576;SDS011;64157;50.138;14.544;2022-12-07T06:24:57;3.47;;;3.17;;
75576;SDS011;64157;50.138;14.544;2022-12-07T06:27:23;5.70;;;2.65;;
75576;SDS011;64157;50.138;14.544;2022-12-07T06:29:49;4.40;;;3.53;;
75576;SDS011;64157;50.138;14.544;2022-12-07T06:32:14;2.85;;;2.40;;
75576;SDS011;64157;50.138;14.544;2022-12-07T06:34:40;3.03;;;2.72;;
75576;SDS011;64157;50.138;14.544;2022-12-07T06:37:06;6.03;;;3.97;;
75576;SDS011;64157;50.138;14.544;2022-12-07T06:39:31;4.35;;;3.13;;
75576;SDS011;64157;50.138;14.544;2022-12-07T06:41:57;3.45;;;2.65;;
75576;SDS011;64157;50.138;14.544;2022-12-07T06:44:22;5.20;;;3.15;;
75576;SDS011;64157;50.138;14.544;2022-12-07T06:46:48;4.25;;;3.22;;
75576;SDS011;64157;50.138;14.544;2022-12-07T06:49:15;2.20;;;2.08;;
75576;SDS011;64157;50.138;14.544;2022-12-07T06:51:40;3.47;;;3.17;;
75576;SDS011;64157;50.138;14.544;2022-12-07T06:54:07;6.10;;;3.92;;
75576;SDS011;64157;50.138;14.544;2022-12-07T06:56:34;5.95;;;3.78;;
75576;SDS011;64157;50.138;14.544;2022-12-07T06:58:59;6.30;;;2.97;;
75576;SDS011;64157;50.138;14.544;2022-12-07T07:01:24;5.72;;;2.28;;
75576;SDS011;64157;50.138;14.544;2022-12-07T07:03:50;4.57;;;3.10;;
75576;SDS011;64157;50.138;14.544;2022-12-07T07:06:15;3.53;;;3.20;;
75576;SDS011;64157;50.138;14.544;2022-12-07T07:08:41;4.85;;;3.60;;
75576;SDS011;64157;50.138;14.544;2022-12-07T07:11:07;6.18;;;4.28;;
75576;SDS011;64157;50.138;14.544;2022-12-07T07:13:33;4.32;;;3.10;;
75576;SDS011;64157;50.138;14.544;2022-12-07T07:15:59;2.92;;;2.65;;
75576;SDS011;64157;50.138;14.544;2022-12-07T07:18:25;3.17;;;2.88;;
75576;SDS011;64157;50.138;14.544;2022-12-07T07:20:51;6.97;;;4.25;;
75576;SDS011;64157;50.138;14.544;2022-12-07T07:23:17;5.65;;;2.97;;
75576;SDS011;64157;50.138;14.544;2022-12-07T07:25:43;4.30;;;3.05;;
75576;SDS011;64157;50.138;14.544;2022-12-07T07:28:09;4.50;;;2.92;;
75576;SDS011;64157;50.138;14.544;2022-12-07T07:30:35;2.13;;;2.03;;
75576;SDS011;64157;50.138;14.544;2022-12-07T07:33:00;4.47;;;2.95;;
75576;SDS011;64157;50.138;14.544;2022-12-07T07:35:28;3.03;;;2.72;;
75576;SDS011;64157;50.138;14.544;2022-12-07T07:37:54;2.90;;;2.38;;
75576;SDS011;64157;50.138;14.544;2022-12-07T07:40:20;3.53;;;2.90;;
75576;SDS011;64157;50.138;14.544;2022-12-07T07:42:52;3.70;;;3.40;;
75576;SDS011;64157;50.138;14.544;2022-12-07T07:45:19;4.00;;;3.33;;
75576;SDS011;64157;50.138;14.544;2022-12-07T07:47:46;4.35;;;3.05;;
75576;SDS011;64157;50.138;14.544;2022-12-07T07:50:11;5.32;;;3.53;;
75576;SDS011;64157;50.138;14.544;2022-12-07T07:52:37;3.00;;;2.70;;
75576;SDS011;64157;50.138;14.544;2022-12-07T07:55:03;3.90;;;3.10;;
75576;SDS011;64157;50.138;14.544;2022-12-07T07:57:28;3.58;;;3.05;;
75576;SDS011;64157;50.138;14.544;2022-12-07T07:59:54;2.40;;;2.03;;
75576;SDS011;64157;50.138;14.544;2022-12-07T08:02:19;4.57;;;2.67;;
75576;SDS011;64157;50.138;14.544;2022-12-07T08:04:45;3.13;;;2.30;;
75576;SDS011;64157;50.138;14.544;2022-12-07T08:07:11;1.60;;;1.50;;
75576;SDS011;64157;50.138;14.544;2022-12-07T08:09:38;3.45;;;2.55;;
75576;SDS011;64157;50.138;14.544;2022-12-07T08:12:03;3.05;;;2.40;;
75576;SDS011;64157;50.138;14.544;2022-12-07T08:14:29;4.82;;;3.47;;
75576;SDS011;64157;50.138;14.544;2022-12-07T08:16:55;4.22;;;3.03;;
75576;SDS011;64157;50.138;14.544;2022-12-07T08:19:20;4.50;;;3.20;;
75576;SDS011;64157;50.138;14.544;2022-12-07T08:21:45;5.32;;;3.67;;
75576;SDS011;64157;50.138;14.544;2022-12-07T08:24:11;3.40;;;3.10;;
75576;SDS011;64157;50.138;14.544;2022-12-07T08:26:37;8.57;;;2.95;;
75576;SDS011;64157;50.138;14.544;2022-12-07T08:29:02;4.72;;;3.00;;
75576;SDS011;64157;50.138;14.544;2022-12-07T08:31:28;4.28;;;3.40;;
75576;SDS011;64157;50.138;14.544;2022-12-07T08:33:54;8.18;;;4.53;;
75576;SDS011;64157;50.138;14.544;2022-12-07T08:36:20;5.63;;;3.25;;
75576;SDS011;64157;50.138;14.544;2022-12-07T08:38:46;4.07;;;3.65;;
75576;SDS011;64157;50.138;14.544;2022-12-07T08:41:12;3.28;;;2.38;;
75576;SDS011;64157;50.138;14.544;2022-12-07T08:43:37;3.38;;;3.08;;
75576;SDS011;64157;50.138;14.544;2022-12-07T08:46:13;4.43;;;3.25;;
75576;SDS011;64157;50.138;14.544;2022-12-07T08:48:44;4.57;;;3.45;;
75576;SDS011;64157;50.138;14.544;2022-12-07T08:51:22;7.40;;;4.18;;
75576;SDS011;64157;50.138;14.544;2022-12-07T08:53:49;7.10;;;4.40;;
75576;SDS011;64157;50.138;14.544;2022-12-07T08:56:16;5.50;;;4.13;;
75576;SDS011;64157;50.138;14.544;2022-12-07T08:58:42;6.45;;;4.90;;
75576;SDS011;64157;50.138;14.544;2022-12-07T09:01:07;5.78;;;4.80;;
75576;SDS011;64157;50.138;14.544;2022-12-07T09:03:33;10.65;;;3.88;;
75576;SDS011;64157;50.138;14.544;2022-12-07T09:05:58;3.67;;;3.33;;
75576;SDS011;64157;50.138;14.544;2022-12-07T09:08:26;5.60;;;4.30;;
75576;SDS011;64157;50.138;14.544;2022-12-07T09:10:55;9.27;;;3.55;;
75576;SDS011;64157;50.138;14.544;2022-12-07T09:13:20;5.90;;;4.13;;
75576;SDS011;64157;50.138;14.544;2022-12-07T09:15:46;6.28;;;3.95;;
75576;SDS011;64157;50.138;14.544;2022-12-07T09:18:11;7.20;;;4.45;;
75576;SDS011;64157;50.138;14.544;2022-12-07T09:20:37;5.95;;;3.63;;
75576;SDS011;64157;50.138;14.544;2022-12-07T09:23:04;4.78;;;4.10;;
75576;SDS011;64157;50.138;14.544;2022-12-07T09:25:31;7.00;;;4.18;;
75576;SDS011;64157;50.138;14.544;2022-12-07T09:27:57;5.90;;;4.38;;
75576;SDS011;64157;50.138;14.544;2022-12-07T09:30:23;5.90;;;4.22;;
75576;SDS011;64157;50.138;14.544;2022-12-07T09:32:48;7.28;;;4.93;;
75576;SDS011;64157;50.138;14.544;2022-12-07T09:35:14;7.72;;;5.00;;
75576;SDS011;64157;50.138;14.544;2022-12-07T09:37:39;4.80;;;3.97;;
75576;SDS011;64157;50.138;14.544;2022-12-07T09:40:05;8.13;;;4.70;;
75576;SDS011;64157;50.138;14.544;2022-12-07T09:42:35;4.15;;;3.13;;
75576;SDS011;64157;50.138;14.544;2022-12-07T09:45:04;5.05;;;4.10;;
75576;SDS011;64157;50.138;14.544;2022-12-07T09:47:32;5.68;;;4.15;;
75576;SDS011;64157;50.138;14.544;2022-12-07T09:50:06;6.40;;;4.43;;
75576;SDS011;64157;50.138;14.544;2022-12-07T09:52:37;5.80;;;4.50;;
75576;SDS011;64157;50.138;14.544;2022-12-07T09:55:03;5.57;;;3.10;;
75576;SDS011;64157;50.138;14.544;2022-12-07T09:57:37;6.22;;;4.00;;
75576;SDS011;64157;50.138;14.544;2022-12-07T10:00:06;7.72;;;3.60;;
75576;SDS011;64157;50.138;14.544;2022-12-07T10:05:03;12.70;;;4.50;;
75576;SDS011;64157;50.138;14.544;2022-12-07T10:07:30;6.30;;;3.35;;
75576;SDS011;64157;50.138;14.544;2022-12-07T10:09:55;6.70;;;5.05;;
75576;SDS011;64157;50.138;14.544;2022-12-07T10:12:21;3.85;;;3.33;;
75576;SDS011;64157;50.138;14.544;2022-12-07T10:14:57;3.55;;;3.08;;
75576;SDS011;64157;50.138;14.544;2022-12-07T10:17:37;5.53;;;4.32;;
75576;SDS011;64157;50.138;14.544;2022-12-07T10:22:37;6.60;;;4.90;;
75576;SDS011;64157;50.138;14.544;2022-12-07T10:25:18;6.28;;;4.78;;
75576;SDS011;64157;50.138;14.544;2022-12-07T10:27:56;5.40;;;4.38;;
75576;SDS011;64157;50.138;14.544;2022-12-07T10:30:27;7.05;;;3.53;;
75576;SDS011;64157;50.138;14.544;2022-12-07T10:32:52;5.70;;;3.63;;
75576;SDS011;64157;50.138;14.544;2022-12-07T10:37:56;4.25;;;3.85;;
75576;SDS011;64157;50.138;14.544;2022-12-07T10:45:29;4.32;;;3.42;;
75576;SDS011;64157;50.138;14.544;2022-12-07T10:55:56;6.57;;;3.60;;
75576;SDS011;64157;50.138;14.544;2022-12-07T11:01:10;4.60;;;2.88;;
75576;SDS011;64157;50.138;14.544;2022-12-07T11:03:40;4.57;;;3.25;;
75576;SDS011;64157;50.138;14.544;2022-12-07T11:06:24;5.10;;;3.40;;
75576;SDS011;64157;50.138;14.544;2022-12-07T11:11:59;3.53;;;3.20;;
75576;SDS011;64157;50.138;14.544;2022-12-07T11:14:40;4.78;;;3.05;;
75576;SDS011;64157;50.138;14.544;2022-12-07T11:27:50;5.93;;;3.63;;
75576;SDS011;64157;50.138;14.544;2022-12-07T11:32:57;3.90;;;3.30;;
75576;SDS011;64157;50.138;14.544;2022-12-07T11:35:30;2.92;;;2.72;;
75576;SDS011;64157;50.138;14.544;2022-12-07T11:38:11;4.20;;;3.63;;
75576;SDS011;64157;50.138;14.544;2022-12-07T11:40:40;4.82;;;3.30;;
75576;SDS011;64157;50.138;14.544;2022-12-07T11:43:13;4.10;;;2.85;;
75576;SDS011;64157;50.138;14.544;2022-12-07T11:45:46;6.00;;;3.92;;
75576;SDS011;64157;50.138;14.544;2022-12-07T11:48:24;3.72;;;2.85;;
75576;SDS011;64157;50.138;14.544;2022-12-07T11:50:59;4.15;;;2.92;;
75576;SDS011;64157;50.138;14.544;2022-12-07T11:53:27;3.60;;;3.05;;
75576;SDS011;64157;50.138;14.544;2022-12-07T11:56:09;3.47;;;3.17;;
75576;SDS011;64157;50.138;14.544;2022-12-07T12:03:58;4.75;;;2.47;;
75576;SDS011;64157;50.138;14.544;2022-12-07T12:06:32;3.63;;;2.92;;
75576;SDS011;64157;50.138;14.544;2022-12-07T12:14:12;3.13;;;2.80;;
75576;SDS011;64157;50.138;14.544;2022-12-07T12:21:59;6.57;;;4.63;;
75576;SDS011;64157;50.138;14.544;2022-12-07T12:24:39;1.98;;;1.83;;
75576;SDS011;64157;50.138;14.544;2022-12-07T12:27:08;2.53;;;2.33;;
75576;SDS011;64157;50.138;14.544;2022-12-07T12:29:43;3.58;;;2.70;;
75576;SDS011;64157;50.138;14.544;2022-12-07T12:32:22;7.57;;;3.50;;
75576;SDS011;64157;50.138;14.544;2022-12-07T12:34:59;3.25;;;2.10;;
75576;SDS011;64157;50.138;14.544;2022-12-07T12:48:26;5.00;;;3.92;;
75576;SDS011;64157;50.138;14.544;2022-12-07T12:50:50;3.00;;;2.45;;
75576;SDS011;64157;50.138;14.544;2022-12-07T12:54:03;2.33;;;2.13;;
75576;SDS011;64157;50.138;14.544;2022-12-07T12:56:35;4.35;;;2.83;;
75576;SDS011;64157;50.138;14.544;2022-12-07T13:01:46;3.25;;;2.50;;
75576;SDS011;64157;50.138;14.544;2022-12-07T13:06:50;3.30;;;2.45;;
75576;SDS011;64157;50.138;14.544;2022-12-07T13:09:20;3.10;;;2.58;;
75576;SDS011;64157;50.138;14.544;2022-12-07T13:11:49;2.38;;;2.05;;
75576;SDS011;64157;50.138;14.544;2022-12-07T13:14:38;3.05;;;2.30;;
75576;SDS011;64157;50.138;14.544;2022-12-07T13:17:11;4.75;;;2.70;;
75576;SDS011;64157;50.138;14.544;2022-12-07T13:19:55;6.03;;;2.92;;
75576;SDS011;64157;50.138;14.544;2022-12-07T13:22:41;5.78;;;3.05;;
75576;SDS011;64157;50.138;14.544;2022-12-07T13:27:47;1.90;;;1.73;;
75576;SDS011;64157;50.138;14.544;2022-12-07T13:30:20;3.15;;;2.05;;
75576;SDS011;64157;50.138;14.544;2022-12-07T13:32:53;3.05;;;2.22;;
75576;SDS011;64157;50.138;14.544;2022-12-07T13:35:36;2.50;;;2.25;;
75576;SDS011;64157;50.138;14.544;2022-12-07T13:38:05;2.13;;;2.00;;
75576;SDS011;64157;50.138;14.544;2022-12-07T13:40:41;4.57;;;2.13;;
75576;SDS011;64157;50.138;14.544;2022-12-07T13:43:14;3.72;;;2.08;;
75576;SDS011;64157;50.138;14.544;2022-12-07T13:45:41;2.42;;;1.92;;
75576;SDS011;64157;50.138;14.544;2022-12-07T13:48:14;2.63;;;1.67;;
75576;SDS011;64157;50.138;14.544;2022-12-07T13:50:52;4.13;;;2.78;;
75576;SDS011;64157;50.138;14.544;2022-12-07T13:53:20;8.90;;;1.90;;
75576;SDS011;64157;50.138;14.544;2022-12-07T13:55:46;8.43;;;3.55;;
75576;SDS011;64157;50.138;14.544;2022-12-07T13:58:12;3.88;;;1.85;;
75576;SDS011;64157;50.138;14.544;2022-12-07T14:00:39;3.40;;;2.80;;
75576;SDS011;64157;50.138;14.544;2022-12-07T14:05:37;2.08;;;1.75;;
75576;SDS011;64157;50.138;14.544;2022-12-07T14:08:21;3.65;;;2.60;;
75576;SDS011;64157;50.138;14.544;2022-12-07T14:15:44;3.08;;;2.40;;
75576;SDS011;64157;50.138;14.544;2022-12-07T14:21:17;1.75;;;1.65;;
75576;SDS011;64157;50.138;14.544;2022-12-07T14:23:45;3.30;;;1.40;;
75576;SDS011;64157;50.138;14.544;2022-12-07T14:26:27;1.75;;;1.65;;
75576;SDS011;64157;50.138;14.544;2022-12-07T14:28:52;2.35;;;2.08;;
75576;SDS011;64157;50.138;14.544;2022-12-07T14:31:18;4.35;;;2.40;;
75576;SDS011;64157;50.138;14.544;2022-12-07T14:33:48;2.85;;;2.20;;
75576;SDS011;64157;50.138;14.544;2022-12-07T14:36:14;2.28;;;2.08;;
75576;SDS011;64157;50.138;14.544;2022-12-07T14:38:40;3.10;;;2.53;;
75576;SDS011;64157;50.138;14.544;2022-12-07T14:41:06;8.10;;;3.25;;
75576;SDS011;64157;50.138;14.544;2022-12-07T14:44:11;3.67;;;2.45;;
75576;SDS011;64157;50.138;14.544;2022-12-07T14:46:37;3.05;;;2.58;;
75576;SDS011;64157;50.138;14.544;2022-12-07T14:49:04;7.53;;;3.80;;
75576;SDS011;64157;50.138;14.544;2022-12-07T14:51:30;6.32;;;4.32;;
75576;SDS011;64157;50.138;14.544;2022-12-07T14:53:57;4.68;;;3.47;;
75576;SDS011;64157;50.138;14.544;2022-12-07T14:56:25;7.78;;;4.93;;
75576;SDS011;64157;50.138;14.544;2022-12-07T14:59:01;3.95;;;3.00;;
75576;SDS011;64157;50.138;14.544;2022-12-07T15:01:28;6.95;;;5.05;;
75576;SDS011;64157;50.138;14.544;2022-12-07T15:03:53;5.15;;;3.47;;
75576;SDS011;64157;50.138;14.544;2022-12-07T15:06:19;5.05;;;3.45;;
75576;SDS011;64157;50.138;14.544;2022-12-07T15:08:44;5.53;;;3.35;;
75576;SDS011;64157;50.138;14.544;2022-12-07T15:11:16;5.00;;;2.92;;
75576;SDS011;64157;50.138;14.544;2022-12-07T15:13:42;4.43;;;3.95;;
75576;SDS011;64157;50.138;14.544;2022-12-07T15:16:27;5.55;;;4.28;;
75576;SDS011;64157;50.138;14.544;2022-12-07T15:18:52;7.13;;;3.78;;
75576;SDS011;64157;50.138;14.544;2022-12-07T15:21:18;9.05;;;4.95;;
75576;SDS011;64157;50.138;14.544;2022-12-07T15:23:43;6.90;;;4.78;;
75576;SDS011;64157;50.138;14.544;2022-12-07T15:26:11;7.63;;;4.53;;
75576;SDS011;64157;50.138;14.544;2022-12-07T15:28:47;3.80;;;3.30;;
75576;SDS011;64157;50.138;14.544;2022-12-07T15:31:16;7.00;;;3.38;;
75576;SDS011;64157;50.138;14.544;2022-12-07T15:33:47;8.45;;;4.25;;
75576;SDS011;64157;50.138;14.544;2022-12-07T15:36:34;4.45;;;3.25;;
75576;SDS011;64157;50.138;14.544;2022-12-07T15:39:00;4.55;;;3.25;;
75576;SDS011;64157;50.138;14.544;2022-12-07T15:41:25;6.88;;;4.93;;
75576;SDS011;64157;50.138;14.544;2022-12-07T15:43:51;6.05;;;4.70;;
75576;SDS011;64157;50.138;14.544;2022-12-07T15:46:36;3.00;;;2.75;;
75576;SDS011;64157;50.138;14.544;2022-12-07T15:49:04;5.80;;;4.07;;
75576;SDS011;64157;50.138;14.544;2022-12-07T15:51:33;4.65;;;4.07;;
75576;SDS011;64157;50.138;14.544;2022-12-07T15:53:59;7.55;;;4.63;;
75576;SDS011;64157;50.138;14.544;2022-12-07T15:56:24;3.28;;;2.67;;
75576;SDS011;64157;50.138;14.544;2022-12-07T15:58:50;7.03;;;4.00;;
75576;SDS011;64157;50.138;14.544;2022-12-07T16:01:17;5.93;;;4.75;;
75576;SDS011;64157;50.138;14.544;2022-12-07T16:03:44;7.72;;;4.75;;
75576;SDS011;64157;50.138;14.544;2022-12-07T16:06:10;6.50;;;4.55;;
75576;SDS011;64157;50.138;14.544;2022-12-07T16:08:36;3.53;;;2.85;;
75576;SDS011;64157;50.138;14.544;2022-12-07T16:11:05;6.55;;;4.40;;
75576;SDS011;64157;50.138;14.544;2022-12-07T16:13:33;4.13;;;2.90;;
75576;SDS011;64157;50.138;14.544;2022-12-07T16:16:06;4.85;;;3.28;;
75576;SDS011;64157;50.138;14.544;2022-12-07T16:18:33;7.32;;;5.28;;
75576;SDS011;64157;50.138;14.544;2022-12-07T16:20:58;5.35;;;3.70;;
75576;SDS011;64157;50.138;14.544;2022-12-07T16:23:24;4.43;;;3.45;;
75576;SDS011;64157;50.138;14.544;2022-12-07T16:25:50;8.70;;;4.78;;
75576;SDS011;64157;50.138;14.544;2022-12-07T16:28:16;7.72;;;4.70;;
75576;SDS011;64157;50.138;14.544;2022-12-07T16:30:41;3.70;;;3.30;;
75576;SDS011;64157;50.138;14.544;2022-12-07T16:33:06;3.88;;;3.08;;
75576;SDS011;64157;50.138;14.544;2022-12-07T16:35:32;11.55;;;3.95;;
75576;SDS011;64157;50.138;14.544;2022-12-07T16:37:57;4.47;;;3.70;;
75576;SDS011;64157;50.138;14.544;2022-12-07T16:40:23;5.50;;;3.42;;
75576;SDS011;64157;50.138;14.544;2022-12-07T16:42:48;5.80;;;3.97;;
75576;SDS011;64157;50.138;14.544;2022-12-07T16:45:14;4.18;;;3.28;;